Terminal Aerodrome Forecast
Issued by NWS

Home | Current Version | Previous Version | Text Only | Print | Product List | Glossary On
Versions: 1 2 3 4 5 6 7 8 9 10 11 12 13 14 15 16
000
FTUS44 KLIX 242344
TAFMCB
TAF
KMCB 242344Z 2500/2524 33008KT 6SM -SHRA BR FEW004 BKN110
      TEMPO 2500/2501 VRB15KT 3SM -TSRA BKN025CB
     FM250100 00000KT P6SM SCT025 BKN200
     FM250900 00000KT P6SM SCT025 BKN250
     FM251600 10010KT P6SM VCSH SCT035 BKN050
      TEMPO 2519/2523 VRB15G25KT 1SM TSRA BR BKN030CB=

USA.gov is the U.S. government's official web portal to all federal, state and local government web resources and services.